Time;durP1;ratioP1;P1;durP2;ratioP2;P2;SDS_P1;SDS_P2;PMS_P1;PMS_P2;Temp;Humidity;BMP_temperature;BMP_pressure;BME280_temperature;BME280_humidity;BME280_pressure;Samples;Min_cycle;Max_cycle;Signal;HPM_P1;HPM_P2
2022/12/29 00:02:32;;;;;;;;;;;17.10;75.40;;;;;;10244847;28;95873;-61
2022/12/29 00:07:34;;;;;;;;;;;17.10;75.50;;;;;;10248104;28;93606;-61
2022/12/29 00:17:56;;;;;;;;;;;17.10;75.50;;;;;;10247125;28;93553;-61
2022/12/29 00:44:30;;;;;;;;;;;17.00;75.60;;;;;;10247533;28;94775;-61
2022/12/29 00:49:32;;;;;;;;;;;17.00;75.60;;;;;;10261537;28;93409;-61
2022/12/29 00:54:35;;;;;;;;;;;17.00;75.60;;;;;;10244725;28;96909;-61
2022/12/29 00:59:38;;;;;;;;;;;17.00;75.40;;;;;;10245758;28;93479;-61
2022/12/29 01:04:40;;;;;;;;;;;17.00;75.10;;;;;;10243653;28;93472;-61
2022/12/29 01:15:01;;;;;;;;;;;17.00;74.70;;;;;;10246776;28;93505;-62
2022/12/29 01:20:04;;;;;;;;;;;16.90;74.80;;;;;;10244135;28;93119;-61
2022/12/29 01:25:06;;;;;;;;;;;16.90;74.40;;;;;;10245253;28;93237;-61
2022/12/29 01:30:08;;;;;;;;;;;16.80;74.20;;;;;;10246432;28;93077;-61
2022/12/29 01:35:10;;;;;;;;;;;16.90;74.40;;;;;;10245121;28;92932;-61
2022/12/29 01:40:12;;;;;;;;;;;16.80;73.90;;;;;;10244803;28;93437;-61
2022/12/29 01:45:15;;;;;;;;;;;16.80;73.60;;;;;;10246240;28;95646;-61
2022/12/29 01:50:25;;;;;;;;;;;16.80;73.60;;;;;;10252135;28;94665;-61
2022/12/29 01:55:29;;;;;;;;;;;16.80;73.40;;;;;;10251925;28;93577;-61
2022/12/29 02:06:06;;;;;;;;;;;16.70;73.30;;;;;;10510212;22;94929;-62
2022/12/29 02:11:07;;;;;;;;;;;16.70;73.30;;;;;;10251833;28;93524;-62
2022/12/29 02:16:09;;;;;;;;;;;16.70;73.30;;;;;;10252048;28;94618;-62
2022/12/29 02:21:17;;;;;;;;;;;16.70;73.10;;;;;;10266904;28;92247;-62
2022/12/29 02:26:27;;;;;;;;;;;16.70;73.10;;;;;;10266687;28;93612;-62
2022/12/29 02:31:39;;;;;;;;;;;16.70;73.10;;;;;;10266175;28;94620;-62
2022/12/29 02:36:53;;;;;;;;;;;16.60;73.00;;;;;;10248359;28;95918;-62
2022/12/29 02:42:03;;;;;;;;;;;16.60;73.00;;;;;;10265907;28;94483;-62
2022/12/29 02:47:11;;;;;;;;;;;16.60;72.90;;;;;;10264418;28;92971;-61
2022/12/29 02:52:15;;;;;;;;;;;16.60;72.90;;;;;;10250991;28;94659;-61
2022/12/29 02:57:20;;;;;;;;;;;16.60;72.80;;;;;;10249661;28;94499;-60
2022/12/29 03:02:33;;;;;;;;;;;16.60;72.70;;;;;;10249096;28;93505;-60
2022/12/29 03:07:38;;;;;;;;;;;16.50;72.60;;;;;;10249331;28;93469;-61
2022/12/29 03:18:10;;;;;;;;;;;16.50;72.60;;;;;;10249698;28;93070;-61
2022/12/29 03:23:13;;;;;;;;;;;16.50;72.60;;;;;;10249934;28;94503;-61
2022/12/29 03:28:18;;;;;;;;;;;16.50;72.60;;;;;;10260725;28;96878;-61
2022/12/29 03:33:22;;;;;;;;;;;16.50;72.60;;;;;;10249127;28;93670;-61
2022/12/29 03:38:34;;;;;;;;;;;16.50;72.40;;;;;;10248152;28;92814;-62
2022/12/29 03:43:36;;;;;;;;;;;16.50;72.40;;;;;;10248200;28;94495;-62
2022/12/29 03:48:37;;;;;;;;;;;16.50;72.40;;;;;;10248391;28;94516;-61
2022/12/29 03:53:39;;;;;;;;;;;16.40;72.40;;;;;;10247397;28;95054;-61
2022/12/29 03:58:41;;;;;;;;;;;16.40;72.30;;;;;;10248308;28;94783;-62
2022/12/29 04:03:42;;;;;;;;;;;16.40;72.30;;;;;;10248224;28;92017;-62
2022/12/29 04:08:44;;;;;;;;;;;16.40;72.20;;;;;;10247718;28;93601;-62
2022/12/29 04:13:46;;;;;;;;;;;16.40;72.20;;;;;;10247043;28;93455;-62
2022/12/29 04:18:48;;;;;;;;;;;16.40;72.20;;;;;;10246229;28;95679;-61
2022/12/29 04:23:49;;;;;;;;;;;16.40;72.10;;;;;;10262381;28;93475;-62
2022/12/29 04:28:51;;;;;;;;;;;16.40;71.90;;;;;;10247034;28;93437;-62
2022/12/29 04:33:52;;;;;;;;;;;16.40;71.90;;;;;;10247703;28;92927;-62
2022/12/29 04:38:54;;;;;;;;;;;16.40;71.90;;;;;;10246727;28;94379;-62
2022/12/29 04:43:56;;;;;;;;;;;16.40;71.80;;;;;;10246367;28;93962;-61
2022/12/29 06:06:24;;;;;;;;;;;16.80;70.70;;;;;;10242523;28;95348;-61
2022/12/29 06:11:26;;;;;;;;;;;17.00;70.20;;;;;;10252027;28;94161;-62
2022/12/29 06:16:27;;;;;;;;;;;17.10;70.00;;;;;;10249776;28;96948;-61
2022/12/29 06:21:29;;;;;;;;;;;17.10;70.10;;;;;;10251488;28;93493;-62
2022/12/29 06:26:30;;;;;;;;;;;17.10;70.10;;;;;;10250715;28;93565;-62
2022/12/29 06:31:32;;;;;;;;;;;17.00;70.10;;;;;;10252492;28;94559;-62
2022/12/29 06:36:34;;;;;;;;;;;17.00;70.30;;;;;;10250625;28;93452;-62
2022/12/29 06:41:36;;;;;;;;;;;17.00;70.30;;;;;;10266053;28;94759;-62
2022/12/29 06:46:37;;;;;;;;;;;17.00;70.40;;;;;;10251420;28;94285;-62
2022/12/29 06:51:39;;;;;;;;;;;16.90;70.60;;;;;;10251072;28;92661;-61
2022/12/29 06:56:41;;;;;;;;;;;16.90;70.80;;;;;;10250580;28;94479;-62
2022/12/29 07:01:42;;;;;;;;;;;16.90;70.90;;;;;;10250350;28;92533;-62
2022/12/29 07:06:44;;;;;;;;;;;16.80;71.00;;;;;;10246864;28;95011;-61
2022/12/29 07:11:46;;;;;;;;;;;16.80;71.10;;;;;;10248956;28;94507;-62
2022/12/29 07:16:48;;;;;;;;;;;16.80;71.20;;;;;;10249909;28;93322;-62
2022/12/29 07:21:49;;;;;;;;;;;16.80;71.40;;;;;;10248736;28;93507;-61
2022/12/29 07:26:51;;;;;;;;;;;16.70;71.50;;;;;;10250105;28;94107;-62
2022/12/29 07:31:53;;;;;;;;;;;16.70;71.60;;;;;;10249457;28;94148;-61
2022/12/29 07:36:55;;;;;;;;;;;16.70;71.70;;;;;;10263107;28;93615;-61
2022/12/29 07:41:57;;;;;;;;;;;16.70;71.80;;;;;;10248739;28;92754;-62
2022/12/29 07:47:05;;;;;;;;;;;16.70;71.90;;;;;;10249046;28;92779;-61
2022/12/29 07:52:07;;;;;;;;;;;16.70;72.10;;;;;;10248579;28;93471;-61
2022/12/29 07:57:08;;;;;;;;;;;16.60;72.00;;;;;;10261775;28;95511;-61
2022/12/29 08:02:11;;;;;;;;;;;16.60;72.10;;;;;;10247567;28;93190;-62
2022/12/29 08:07:13;;;;;;;;;;;16.60;72.20;;;;;;10248158;28;93402;-61
2022/12/29 08:12:14;;;;;;;;;;;16.60;72.20;;;;;;10247362;28;93872;-61
2022/12/29 08:17:16;;;;;;;;;;;16.60;72.30;;;;;;10262601;28;93488;-61
2022/12/29 08:22:18;;;;;;;;;;;16.60;72.40;;;;;;10247651;28;93293;-61
2022/12/29 08:27:20;;;;;;;;;;;16.60;72.40;;;;;;10246894;28;93533;-61
2022/12/29 08:32:22;;;;;;;;;;;16.60;72.40;;;;;;10247887;28;92590;-62
2022/12/29 08:37:23;;;;;;;;;;;16.60;72.60;;;;;;10247106;28;93444;-61
2022/12/29 08:42:31;;;;;;;;;;;16.60;73.50;;;;;;10248160;28;93256;-62
2022/12/29 08:47:33;;;;;;;;;;;16.50;72.50;;;;;;10259692;28;96570;-61
2022/12/29 08:52:35;;;;;;;;;;;16.50;72.60;;;;;;10245975;28;93427;-62
2022/12/29 08:57:36;;;;;;;;;;;16.50;72.60;;;;;;10246355;28;93465;-62
2022/12/29 09:02:38;;;;;;;;;;;16.50;72.70;;;;;;10246580;28;94677;-61
2022/12/29 09:07:40;;;;;;;;;;;16.50;72.70;;;;;;10246782;28;93376;-62
2022/12/29 09:12:42;;;;;;;;;;;16.50;72.80;;;;;;10246675;28;94487;-62
2022/12/29 09:17:44;;;;;;;;;;;16.50;72.80;;;;;;10246580;28;94474;-62
2022/12/29 09:22:46;;;;;;;;;;;16.50;73.00;;;;;;10247344;28;92789;-62
2022/12/29 09:27:48;;;;;;;;;;;16.50;73.00;;;;;;10246206;28;96155;-63
2022/12/29 09:32:50;;;;;;;;;;;16.50;72.90;;;;;;10245727;28;94199;-62
2022/12/29 09:37:56;;;;;;;;;;;16.50;72.40;;;;;;10243739;28;96090;-63
2022/12/29 09:43:19;;;;;;;;;;;16.40;72.10;;;;;;10245277;28;93457;-62
2022/12/29 09:48:23;;;;;;;;;;;16.40;73.10;;;;;;10244891;28;93526;-62
2022/12/29 09:53:28;;;;;;;;;;;16.50;73.60;;;;;;10245606;28;93357;-62
2022/12/29 09:58:32;;;;;;;;;;;16.50;73.80;;;;;;10244918;28;92926;-62
2022/12/29 10:03:45;;;;;;;;;;;16.70;74.10;;;;;;10246173;28;94435;-62
2022/12/29 10:08:54;;;;;;;;;;;16.90;73.90;;;;;;10252307;28;94086;-63
2022/12/29 10:14:16;;;;;;;;;;;17.20;73.90;;;;;;10252922;28;93252;-63
2022/12/29 10:19:37;;;;;;;;;;;17.30;73.30;;;;;;10245170;28;95569;-62
2022/12/29 10:24:39;;;;;;;;;;;17.40;72.20;;;;;;10246834;28;93815;-62
2022/12/29 10:29:45;;;;;;;;;;;17.30;71.50;;;;;;10240820;28;96727;-62
2022/12/29 10:34:48;;;;;;;;;;;17.30;71.10;;;;;;10248303;28;94573;-62
2022/12/29 10:39:54;;;;;;;;;;;17.30;71.10;;;;;;10251088;28;93267;-63
2022/12/29 10:44:57;;;;;;;;;;;17.20;70.90;;;;;;10251045;28;93351;-63
2022/12/29 10:50:00;;;;;;;;;;;17.20;70.90;;;;;;10250019;28;93333;-62
2022/12/29 10:55:03;;;;;;;;;;;17.30;70.80;;;;;;10265300;28;94229;-62
2022/12/29 11:00:12;;;;;;;;;;;17.40;70.60;;;;;;10250249;28;92899;-62
2022/12/29 11:05:26;;;;;;;;;;;17.40;70.20;;;;;;10250629;28;92675;-62
2022/12/29 11:10:33;;;;;;;;;;;17.30;70.00;;;;;;10249207;28;92967;-62
2022/12/29 11:15:40;;;;;;;;;;;17.30;70.00;;;;;;10248869;28;94478;-62
2022/12/29 11:20:42;;;;;;;;;;;17.30;69.90;;;;;;10247441;28;96559;-62
2022/12/29 11:25:43;;;;;;;;;;;17.20;70.00;;;;;;10248805;28;93274;-62
2022/12/29 11:30:58;;;;;;;;;;;17.20;70.00;;;;;;10249247;28;94455;-62
2022/12/29 11:36:12;;;;;;;;;;;17.10;69.90;;;;;;10249138;28;93524;-62
2022/12/29 11:41:19;;;;;;;;;;;17.10;69.90;;;;;;10249042;28;94612;-62
2022/12/29 11:46:26;;;;;;;;;;;17.10;69.90;;;;;;10249769;28;94298;-62
2022/12/29 11:51:29;;;;;;;;;;;17.00;69.90;;;;;;10249322;28;94588;-62
2022/12/29 11:56:34;;;;;;;;;;;17.00;69.90;;;;;;10249982;28;92699;-62
2022/12/29 12:01:42;;;;;;;;;;;17.00;69.80;;;;;;10249236;28;94774;-62
2022/12/29 12:06:47;;;;;;;;;;;17.00;69.70;;;;;;10248306;28;94506;-62
2022/12/29 12:11:53;;;;;;;;;;;17.00;69.60;;;;;;10260216;28;95266;-62
2022/12/29 12:16:56;;;;;;;;;;;17.00;69.60;;;;;;10248091;28;93419;-62
2022/12/29 12:22:18;;;;;;;;;;;17.00;69.60;;;;;;10248028;28;94021;-61
2022/12/29 12:27:23;;;;;;;;;;;17.00;69.40;;;;;;10247942;28;94430;-61
2022/12/29 12:32:24;;;;;;;;;;;17.00;69.30;;;;;;10246354;28;93457;-62
2022/12/29 12:37:45;;;;;;;;;;;17.00;69.20;;;;;;10247370;28;94685;-62
2022/12/29 12:42:49;;;;;;;;;;;17.00;69.20;;;;;;10248041;28;93574;-62
2022/12/29 12:47:58;;;;;;;;;;;17.00;69.20;;;;;;10248563;28;93533;-61
2022/12/29 12:53:03;;;;;;;;;;;17.10;69.10;;;;;;10247014;28;94403;-62
2022/12/29 12:58:13;;;;;;;;;;;17.10;68.90;;;;;;10246320;28;92556;-62
2022/12/29 13:03:26;;;;;;;;;;;17.10;68.90;;;;;;10244430;28;96857;-62
2022/12/29 13:08:28;;;;;;;;;;;17.10;68.90;;;;;;10247106;28;94577;-62
2022/12/29 13:13:40;;;;;;;;;;;17.10;68.90;;;;;;10261656;28;93378;-62
2022/12/29 13:18:44;;;;;;;;;;;17.10;68.60;;;;;;10246592;28;93573;-62
2022/12/29 13:23:56;;;;;;;;;;;17.10;68.50;;;;;;10246512;28;94796;-61
2022/12/29 13:28:58;;;;;;;;;;;17.10;68.40;;;;;;10260972;28;93462;-59
2022/12/29 13:34:13;;;;;;;;;;;17.10;68.40;;;;;;10245339;28;93413;-61
2022/12/29 13:39:15;;;;;;;;;;;17.10;68.30;;;;;;10249824;28;94073;-62
2022/12/29 13:44:24;;;;;;;;;;;17.10;68.00;;;;;;10253734;28;93639;-62
2022/12/29 13:49:26;;;;;;;;;;;17.10;67.90;;;;;;10253984;28;93222;-62
2022/12/29 13:54:31;;;;;;;;;;;17.10;67.70;;;;;;10250017;28;95891;-62
2022/12/29 13:59:48;;;;;;;;;;;17.10;67.80;;;;;;10252697;28;92560;-61
2022/12/29 14:05:00;;;;;;;;;;;17.10;67.60;;;;;;10252475;28;93566;-62
2022/12/29 14:10:02;;;;;;;;;;;17.20;67.60;;;;;;10252696;28;94555;-62
2022/12/29 14:15:06;;;;;;;;;;;17.20;67.60;;;;;;10251944;28;94784;-62
2022/12/29 14:20:21;;;;;;;;;;;17.10;67.50;;;;;;10251873;28;93552;-62
2022/12/29 14:25:41;;;;;;;;;;;17.10;67.50;;;;;;10251884;28;94079;-61
2022/12/29 14:30:46;;;;;;;;;;;17.20;67.50;;;;;;10252438;28;93315;-62
2022/12/29 14:35:51;;;;;;;;;;;17.20;67.30;;;;;;10251268;28;94788;-61
2022/12/29 14:41:13;;;;;;;;;;;17.20;67.20;;;;;;10251292;28;93553;-63
2022/12/29 14:46:21;;;;;;;;;;;17.20;67.10;;;;;;10248592;28;96627;-62
2022/12/29 14:51:29;;;;;;;;;;;17.10;67.10;;;;;;10250348;28;93575;-62
2022/12/29 14:56:31;;;;;;;;;;;17.10;67.00;;;;;;10250550;28;93586;-62
2022/12/29 15:01:37;;;;;;;;;;;17.20;67.00;;;;;;10251125;28;93549;-63
2022/12/29 15:06:41;;;;;;;;;;;17.20;66.90;;;;;;10249681;28;93507;-62
2022/12/29 15:11:48;;;;;;;;;;;17.10;66.70;;;;;;10250714;28;94248;-62
2022/12/29 15:16:50;;;;;;;;;;;17.10;66.80;;;;;;10264811;28;92654;-62
2022/12/29 15:21:55;;;;;;;;;;;17.10;66.90;;;;;;10250954;28;93679;-62
2022/12/29 15:27:02;;;;;;;;;;;17.10;66.80;;;;;;10264600;28;94502;-62
2022/12/29 15:32:15;;;;;;;;;;;17.10;66.80;;;;;;10250614;28;93431;-62
2022/12/29 15:37:19;;;;;;;;;;;17.10;66.70;;;;;;10246041;28;116389;-61
2022/12/29 15:42:39;;;;;;;;;;;17.10;66.70;;;;;;10264249;28;93699;-61
2022/12/29 15:47:43;;;;;;;;;;;17.00;66.70;;;;;;10249015;28;94138;-61
2022/12/29 15:52:45;;;;;;;;;;;17.10;66.70;;;;;;10249087;28;92986;-61
2022/12/29 15:57:47;;;;;;;;;;;17.10;66.50;;;;;;10249395;28;93832;-62
2022/12/29 16:02:49;;;;;;;;;;;17.10;66.50;;;;;;10262369;28;93743;-62
2022/12/29 16:07:52;;;;;;;;;;;17.10;66.50;;;;;;10248764;28;96057;-62
2022/12/29 16:12:54;;;;;;;;;;;17.10;66.70;;;;;;10248142;28;93649;-63
2022/12/29 16:17:56;;;;;;;;;;;17.00;66.50;;;;;;10247937;28;93378;-62
2022/12/29 16:22:59;;;;;;;;;;;17.10;67.10;;;;;;10248191;28;93214;-65
2022/12/29 16:28:01;;;;;;;;;;;17.20;69.60;;;;;;10245378;28;95908;-64
2022/12/29 16:33:04;;;;;;;;;;;17.50;71.20;;;;;;10247865;28;93601;-64
2022/12/29 16:38:15;;;;;;;;;;;17.80;71.50;;;;;;10246852;28;93492;-64
2022/12/29 16:43:31;;;;;;;;;;;18.10;70.00;;;;;;10247371;28;94288;-65
2022/12/29 16:48:45;;;;;;;;;;;18.20;69.60;;;;;;10246507;28;93450;-64
2022/12/29 16:53:48;;;;;;;;;;;18.20;69.50;;;;;;10247250;28;93446;-64
2022/12/29 16:58:54;;;;;;;;;;;18.20;69.50;;;;;;10261747;28;93258;-64
2022/12/29 17:04:04;;;;;;;;;;;18.10;69.50;;;;;;10247024;28;92250;-64
2022/12/29 17:09:18;;;;;;;;;;;18.10;69.70;;;;;;10246041;28;95261;-62
2022/12/29 17:14:20;;;;;;;;;;;18.00;69.80;;;;;;10249698;28;94232;-61
2022/12/29 17:19:27;;;;;;;;;;;18.00;69.90;;;;;;10266381;28;97055;-61
2022/12/29 17:24:29;;;;;;;;;;;18.10;69.70;;;;;;10253920;28;93535;-61
2022/12/29 17:29:33;;;;;;;;;;;18.20;69.40;;;;;;10268600;28;93619;-62
2022/12/29 17:34:35;;;;;;;;;;;18.20;69.20;;;;;;10267174;28;94509;-63
2022/12/29 17:39:36;;;;;;;;;;;18.20;69.20;;;;;;10268911;28;94626;-62
2022/12/29 17:44:38;;;;;;;;;;;18.10;69.30;;;;;;10252423;28;93457;-62
2022/12/29 17:49:44;;;;;;;;;;;18.10;69.50;;;;;;10251169;28;93080;-62
2022/12/29 17:54:50;;;;;;;;;;;18.20;69.50;;;;;;10253564;28;92814;-62
2022/12/29 17:59:52;;;;;;;;;;;18.30;69.30;;;;;;10252848;28;95004;-62
2022/12/29 18:04:54;;;;;;;;;;;18.40;69.10;;;;;;10252299;28;93476;-62
2022/12/29 18:09:56;;;;;;;;;;;18.40;69.10;;;;;;10249462;28;95751;-62
2022/12/29 18:14:57;;;;;;;;;;;18.20;69.10;;;;;;10252583;28;93951;-62
2022/12/29 18:19:59;;;;;;;;;;;18.20;69.10;;;;;;10251229;28;93400;-63
2022/12/29 18:25:01;;;;;;;;;;;18.20;69.30;;;;;;10250800;28;93333;-62
2022/12/29 18:30:03;;;;;;;;;;;18.10;69.50;;;;;;10250111;28;93572;-62
2022/12/29 18:35:28;;;;;;;;;;;18.00;69.40;;;;;;10250663;28;93439;-62
2022/12/29 18:40:30;;;;;;;;;;;18.00;69.60;;;;;;10245155;28;93835;-62
2022/12/29 18:45:32;;;;;;;;;;;17.90;69.80;;;;;;10251640;28;93429;-62
2022/12/29 18:50:34;;;;;;;;;;;17.90;70.20;;;;;;10250839;28;94455;-62
2022/12/29 18:55:35;;;;;;;;;;;18.00;70.20;;;;;;10247365;28;93286;-62
2022/12/29 19:00:37;;;;;;;;;;;18.10;69.90;;;;;;10247742;28;95963;-63
2022/12/29 19:05:40;;;;;;;;;;;18.30;69.30;;;;;;10249097;28;93920;-63
2022/12/29 19:10:43;;;;;;;;;;;18.30;68.80;;;;;;10249382;28;93470;-64
2022/12/29 19:15:45;;;;;;;;;;;18.30;68.50;;;;;;10249052;28;93679;-64
2022/12/29 19:20:48;;;;;;;;;;;18.30;68.50;;;;;;10249376;28;93545;-64
2022/12/29 19:25:50;;;;;;;;;;;18.30;68.40;;;;;;10248720;28;93248;-62
2022/12/29 19:30:53;;;;;;;;;;;18.50;68.90;;;;;;10249175;28;94201;-63
2022/12/29 19:36:01;;;;;;;;;;;18.70;68.30;;;;;;10249548;28;92424;-64
2022/12/29 19:41:05;;;;;;;;;;;18.80;67.70;;;;;;10249537;28;94583;-64
2022/12/29 19:46:07;;;;;;;;;;;18.90;67.50;;;;;;10248731;28;94083;-64
2022/12/29 19:51:10;;;;;;;;;;;18.80;67.40;;;;;;10246209;28;96027;-64
2022/12/29 19:56:12;;;;;;;;;;;18.70;67.40;;;;;;10247851;28;93810;-63
2022/12/29 20:01:15;;;;;;;;;;;18.50;67.80;;;;;;10248955;28;92553;-63
2022/12/29 20:06:18;;;;;;;;;;;18.50;68.00;;;;;;10247876;28;94281;-63
2022/12/29 20:11:19;;;;;;;;;;;18.40;68.00;;;;;;10246624;28;94516;-63
2022/12/29 20:16:21;;;;;;;;;;;18.30;68.20;;;;;;10247975;28;93668;-63
2022/12/29 20:21:23;;;;;;;;;;;18.40;68.10;;;;;;10247235;28;93717;-63
2022/12/29 20:26:26;;;;;;;;;;;18.50;67.90;;;;;;10248998;28;93843;-63
2022/12/29 20:31:29;;;;;;;;;;;18.60;67.80;;;;;;10247330;28;93502;-63
2022/12/29 20:36:32;;;;;;;;;;;18.50;67.70;;;;;;10247696;28;93709;-62
2022/12/29 20:41:34;;;;;;;;;;;18.40;67.80;;;;;;10244438;28;95917;-63
2022/12/29 20:46:35;;;;;;;;;;;18.30;67.70;;;;;;10246949;28;94454;-63
2022/12/29 20:51:44;;;;;;;;;;;18.20;67.80;;;;;;10246227;28;93668;-63
2022/12/29 20:57:06;;;;;;;;;;;18.20;68.10;;;;;;10244795;28;93723;-65
2022/12/29 21:02:16;;;;;;;;;;;18.10;68.30;;;;;;10247165;28;94146;-64
2022/12/29 21:07:18;;;;;;;;;;;18.00;68.50;;;;;;10246359;28;94486;-65
2022/12/29 21:12:21;;;;;;;;;;;18.00;68.60;;;;;;10261534;28;94561;-64
2022/12/29 21:17:22;;;;;;;;;;;17.90;68.60;;;;;;10248495;28;93798;-64
2022/12/29 21:22:24;;;;;;;;;;;17.80;68.80;;;;;;10247668;28;93280;-64
2022/12/29 21:27:26;;;;;;;;;;;17.80;68.80;;;;;;10245638;28;94522;-64
2022/12/29 21:32:27;;;;;;;;;;;17.80;68.80;;;;;;10243054;28;96882;-64
2022/12/29 21:37:29;;;;;;;;;;;17.70;68.90;;;;;;10244830;28;93137;-63
2022/12/29 21:42:31;;;;;;;;;;;17.70;69.20;;;;;;10244627;28;94505;-63
2022/12/29 21:48:19;;;;;;;;;;;17.60;68.90;;;;;;10246052;28;94493;-63
2022/12/29 21:53:00;;;;;;;;;;;17.60;68.50;;;;;;10245411;28;93993;-63
2022/12/29 22:14:02;;;;;;;;;;;17.40;67.30;;;;;;10250644;28;95418;-63
2022/12/29 22:19:06;;;;;;;;;;;17.30;67.20;;;;;;10251578;28;94251;-63
2022/12/29 22:24:08;;;;;;;;;;;17.20;67.10;;;;;;10248491;28;96940;-63
2022/12/29 22:29:10;;;;;;;;;;;17.10;66.80;;;;;;10250820;28;94182;-62
2022/12/29 22:34:13;;;;;;;;;;;17.10;66.90;;;;;;10250456;28;92616;-62
2022/12/29 22:39:15;;;;;;;;;;;17.10;66.70;;;;;;10251518;28;94160;-63
2022/12/29 22:44:16;;;;;;;;;;;17.10;66.90;;;;;;10250881;28;93555;-62
2022/12/29 22:49:18;;;;;;;;;;;17.00;66.70;;;;;;10264843;28;93301;-61
2022/12/29 22:54:20;;;;;;;;;;;17.00;66.70;;;;;;10250690;28;94488;-62
2022/12/29 22:59:22;;;;;;;;;;;17.00;66.60;;;;;;10249744;28;92354;-63
2022/12/29 23:04:23;;;;;;;;;;;17.00;66.40;;;;;;10249575;28;93110;-63
2022/12/29 23:09:45;;;;;;;;;;;16.90;66.40;;;;;;10263466;28;93700;-65
2022/12/29 23:14:47;;;;;;;;;;;16.90;66.20;;;;;;10246190;28;96115;-63
2022/12/29 23:19:49;;;;;;;;;;;16.90;65.90;;;;;;10262754;28;93296;-63
2022/12/29 23:24:51;;;;;;;;;;;16.90;66.00;;;;;;10248954;28;93296;-63
2022/12/29 23:29:53;;;;;;;;;;;16.90;66.10;;;;;;10249587;28;93985;-63
2022/12/29 23:34:54;;;;;;;;;;;16.80;65.90;;;;;;10249963;28;94845;-63
2022/12/29 23:39:56;;;;;;;;;;;16.80;65.80;;;;;;10249183;28;94512;-63
2022/12/29 23:44:58;;;;;;;;;;;16.80;65.80;;;;;;10249224;28;93407;-63
2022/12/29 23:49:59;;;;;;;;;;;16.80;65.70;;;;;;10249737;28;91742;-63
2022/12/29 23:55:01;;;;;;;;;;;16.70;65.80;;;;;;10247639;28;92453;-63
